Washington, DC (20536)

1:00 PM EDT on September 02, 2014 (GMT -0400)
Eckington Pl, NE | Change Station
CLOSE
Current Station
Personal Weather Station
Location: Washington, DC
Elevation: 90 ft
Nearby Weather Stations

Elev 90 ft 38.91 °N, 77.01 °W | Updated 3 minutes ago

Mostly Cloudy
Mostly Cloudy
90.4 °F
Feels Like 96 °F
N
1.0
Wind Variable Wind from SSW
Gusts 3.0 mph

Today
High -- | Low -- °F
--% Chance of Precip.
Yesterday
High -- | Low -- °F
Precip. -- in
6:37 AM 7:36 PM
First Quarter, 53% visible
Pressure 29.96 in
Visibility 10.0 miles
Clouds Mostly Cloudy 6000 ft
Mostly Cloudy 25000 ft
Heat Index 96 °F
Dew Point 70 °F
Humidity 51%
Rainfall -999.00 in
Snow Depth Not available.
UV 5 out of 12
Pollen 9.80 out of 12
Air Quality Not available.
Flu Activity Not available.
METAR KDCA 021652Z 17008KT 10SM BKN060 BKN250 33/21 A2996 RMK AO2 SLP144 T03280211

More Conditions Fewer Conditions

Pressure 29.96 in
Visibility 10.0 miles
Clouds Mostly Cloudy 6000 ft
Mostly Cloudy 25000 ft
Heat Index 96 °F
Dew Point 70 °F
Humidity 51%
Rainfall -999.00 in
Snow Depth Not available.
UV 5 out of 12
Pollen 9.80 out of 12
Air Quality Not available.
Flu Activity Not available.
METAR KDCA 021652Z 17008KT 10SM BKN060 BKN250 33/21 A2996 RMK AO2 SLP144 T03280211

More Conditions Fewer Conditions

10-Day Weather Forecast

Almanac

Astronomy

Sep. 02, 2014 Rise Set
Actual Time 6:37 AM EDT 7:36 PM EDT
Civil Twilight 6:10 AM EDT 8:04 PM EDT
Nautical Twilight 5:38 AM EDT 8:36 PM EDT
Astronomical Twilight 5:04 AM EDT 9:09 PM EDT
Moon 2:16 PM EDT No Moon Set
Length of Visible Light 13h 53m
Length of Day
12h 59m
Tomorrow will be 2m 25s shorter.
First Quarter, 53% of the Moon is Illuminated
Today
First Quarter
Sep 8
Full
Sep 15
Last Quarter
Sep 24
New
Oct 1
First Quarter

Today's Extremes

State Highs State Lows

Community

WunderPhotos

Upload Photos

1,749,720 photos uploaded!

Nearby

Snow Depth

Station Depth Elevation
No new snow has been reported.

Earthquake Activity

City Distance Mag. Time & Date
No recent earthquake activity has been reported nearby.
Minimum magnitude displayed is 2.5.

Coastal Water Temperatures

Place Temperature
Washington, DC 81.0 °F
Baltimore, MD 82.0 °F
Solomons Island, MD 80.1 °F

Nearby Weather Stations